Meadow Lake, Alaska
Current Conditions -  °F | °C
As of 1:16 PM on Monday 20 Oct 2014 (Local Time) from PAWS Reporting Station
Overcast Overcast  
Wind Chill: 32°   Ceiling: 2800
Heat Index: 36°   Visibility: 10mi
Dew Point: 28°   Wind: 5mph
Humidity: 75%   Direction: 160°SSE
Pressure: 29.01"   Gusts: NA
Location:  61.5841°N, 149.443°W
Report Text: PAWS 202116Z AUTO 16004KT 10SM FEW005 OVC028 02/M02 A2901 RMK AO1
Loading
Personal Weather Stations






























Interactive Weather Map
Tropical Storm Tracking
New forecast layout! Learn more

10-Day Weather Forecast

Advertisements
Track Severe Weather on mobile